EGTK/OXF METAR and TAF weather

Enter ICAO airport designator
Station Type Date Time Source
EGTK METAR 2019/06/16 06:50 UTC NOAA

EGTK 160650Z 16007KT 8000 SCT007 BKN010 12/12 Q1014


Station Type Date Time Source
EGTK Decoded METAR 2019/06/16 06:50 UTC NOAA

Station name not available
Jun 16, 2019 - 02:50 AM EDT / 2019.06.16 0650 UTC
Wind: from the SSE (160 degrees) at 8 MPH (7 KT):0
Visibility: 4 mile(s):0
Sky conditions: mostly cloudy
Temperature: 53 F (12 C)
Dew Point: 53 F (12 C)
Relative Humidity: 100%
Pressure (altimeter): 29.94 in. Hg (1014 hPa)
ob: EGTK 160650Z 16007KT 8000 SCT007 BKN010 12/12 Q1014
cycle: 7

Station Type Date Time Source
EGTK TAF UTC NOAA

Error!

Example: see airport list